Argo Village, New York
Current Conditions -  °F | °C
As of 3:51 PM on Thursday 18 Dec 2014 (Local Time) from KJFK Reporting Station
Scattered Clouds Scattered Clouds  
Wind Chill: 35°   Ceiling: Unl
Heat Index: 42°   Visibility: 10mi
Dew Point: 24°   Wind: 15mph
Humidity: 49%   Direction: 290°WNW
Pressure: 29.96"   Gusts: 24mph
Location:  40.7013°N, 73.7074°W
Report Text: KJFK 182051Z 29013G21KT 10SM SCT041 SCT250 06/M04 A2996 RMK AO2 SLP145 T00561044 55000
Loading
Personal Weather Stations






























Interactive Weather Map New forecast layout! Learn more

10-Day Weather Forecast

Advertisements
Track Severe Weather on mobile